Quicksburg, Virginia
Current Conditions -  °F | °C
As of 12:35 PM on Thursday 30 Oct 2014 (Local Time) from K8W2 Reporting Station
Overcast Overcast  
Wind Chill: 47°   Ceiling: 4400
Heat Index: 49°   Visibility: 10mi
Dew Point: 36°   Wind: 7mph
Humidity: 60%   Direction: 350°N
Pressure: 30.1"   Gusts: NA
Location:  38.69°N, 78.68°W
Report Text: K8W2 301635Z AUTO 35006KT 10SM OVC044 10/02 A3010 RMK AO1 T00970023
Loading
Personal Weather Stations






























Interactive Weather Map
Tropical Storm Tracking
New forecast layout! Learn more

10-Day Weather Forecast

Advertisements
Track Severe Weather on mobile